BAD weather

Barksdale Air Force Base
Bossier City, Louisiana, United States

Public forecast

Using degrees Fahrenheit for public forecast. Weather courtesy of forecast.io.

METAR (pilot weather report)

Retrieved 2019/03/21 00:56 UTC (15 minutes ago):

KBAD 210056Z AUTO 36007KT 10SM BKN065 13/07 A3018 RMK AO2 SLP223 T01260066

TAF (pilot weather forecast)

Forecast is more than 6 hours old.

Retrieved 2019/03/20 18:06 UTC (7 hours ago):

TAF KBAD 201800Z 2018/2124 28012G18KT 9999 SCT040 QNH3015INS TEMPO 2022/2024 8000 -SHRA BKN020 BECMG 2101/2102 27010KT 9999 SKC QNH3010INS BECMG 2116/2117 28015G20KT 9999 SKC QNH3010INS TX20/2118Z TN06/2111Z